sensor_id;sensor_type;location;lat;lon;timestamp;pressure;altitude;pressure_sealevel;temperature;humidity
37832;BME280;23671;38.090;-122.570;2022-07-29T00:00:29;101055.34;;;30.47;36.05
37832;BME280;23671;38.090;-122.570;2022-07-29T00:02:56;101051.44;;;30.43;36.22
37832;BME280;23671;38.090;-122.570;2022-07-29T00:05:23;101049.81;;;30.42;36.05
37832;BME280;23671;38.090;-122.570;2022-07-29T00:07:50;101050.19;;;30.34;36.09
37832;BME280;23671;38.090;-122.570;2022-07-29T00:10:17;101046.53;;;30.28;36.29
37832;BME280;23671;38.090;-122.570;2022-07-29T00:12:44;101042.19;;;30.27;36.12
37832;BME280;23671;38.090;-122.570;2022-07-29T00:15:11;101046.75;;;30.27;36.24
37832;BME280;23671;38.090;-122.570;2022-07-29T00:17:38;101041.31;;;30.27;36.24
37832;BME280;23671;38.090;-122.570;2022-07-29T00:20:06;101035.75;;;30.22;35.89
37832;BME280;23671;38.090;-122.570;2022-07-29T00:22:33;101040.13;;;30.23;36.21
37832;BME280;23671;38.090;-122.570;2022-07-29T00:25:03;101045.00;;;30.21;35.78
37832;BME280;23671;38.090;-122.570;2022-07-29T00:27:30;101043.56;;;30.18;36.11
37832;BME280;23671;38.090;-122.570;2022-07-29T00:29:57;101036.16;;;30.14;36.10
37832;BME280;23671;38.090;-122.570;2022-07-29T00:32:24;101032.59;;;30.13;35.83
37832;BME280;23671;38.090;-122.570;2022-07-29T00:34:51;101033.63;;;30.12;35.82
37832;BME280;23671;38.090;-122.570;2022-07-29T00:37:36;101033.31;;;30.09;35.86
37832;BME280;23671;38.090;-122.570;2022-07-29T00:40:03;101032.13;;;30.05;35.84
37832;BME280;23671;38.090;-122.570;2022-07-29T00:42:31;101033.09;;;29.99;35.61
37832;BME280;23671;38.090;-122.570;2022-07-29T00:45:07;101024.31;;;29.97;35.54
37832;BME280;23671;38.090;-122.570;2022-07-29T00:47:34;101025.41;;;29.96;35.40
37832;BME280;23671;38.090;-122.570;2022-07-29T00:50:03;101015.22;;;29.91;35.49
37832;BME280;23671;38.090;-122.570;2022-07-29T00:52:30;101020.59;;;29.75;35.25
37832;BME280;23671;38.090;-122.570;2022-07-29T00:54:58;101021.19;;;29.65;35.19
37832;BME280;23671;38.090;-122.570;2022-07-29T00:57:25;101015.66;;;29.72;35.68
37832;BME280;23671;38.090;-122.570;2022-07-29T00:59:52;101019.75;;;29.63;35.65
37832;BME280;23671;38.090;-122.570;2022-07-29T01:02:19;101017.38;;;29.66;35.20
37832;BME280;23671;38.090;-122.570;2022-07-29T01:04:46;101013.03;;;29.53;35.22
37832;BME280;23671;38.090;-122.570;2022-07-29T01:07:13;101015.16;;;29.51;35.81
37832;BME280;23671;38.090;-122.570;2022-07-29T01:09:41;101013.28;;;29.40;35.23
37832;BME280;23671;38.090;-122.570;2022-07-29T01:12:09;101024.50;;;29.44;nan
37832;BME280;23671;38.090;-122.570;2022-07-29T01:14:37;101023.44;;;29.33;35.61
37832;BME280;23671;38.090;-122.570;2022-07-29T01:20:10;101023.22;;;29.23;35.17
37832;BME280;23671;38.090;-122.570;2022-07-29T01:22:53;101011.34;;;29.18;35.02
37832;BME280;23671;38.090;-122.570;2022-07-29T01:26:04;101018.72;;;29.17;35.45
37832;BME280;23671;38.090;-122.570;2022-07-29T01:32:05;101017.72;;;29.00;35.54
37832;BME280;23671;38.090;-122.570;2022-07-29T01:34:21;101010.00;;;28.97;35.48
37832;BME280;23671;38.090;-122.570;2022-07-29T01:36:54;101011.78;;;28.92;35.65
37832;BME280;23671;38.090;-122.570;2022-07-29T01:39:33;101007.28;;;28.86;35.42
37832;BME280;23671;38.090;-122.570;2022-07-29T01:42:20;101018.97;;;28.75;35.82
37832;BME280;23671;38.090;-122.570;2022-07-29T01:45:06;101027.81;;;28.70;36.17
37832;BME280;23671;38.090;-122.570;2022-07-29T01:47:54;101022.09;;;28.60;36.05
37832;BME280;23671;38.090;-122.570;2022-07-29T01:50:33;101022.41;;;28.52;35.59
37832;BME280;23671;38.090;-122.570;2022-07-29T01:53:03;101006.44;;;28.44;35.36
37832;BME280;23671;38.090;-122.570;2022-07-29T01:55:44;101017.50;;;28.31;35.24
37832;BME280;23671;38.090;-122.570;2022-07-29T01:58:12;101002.38;;;28.35;35.51
37832;BME280;23671;38.090;-122.570;2022-07-29T02:00:41;101010.03;;;28.26;35.63
37832;BME280;23671;38.090;-122.570;2022-07-29T02:03:12;101014.19;;;28.29;35.48
37832;BME280;23671;38.090;-122.570;2022-07-29T02:05:42;101014.84;;;28.24;35.79
37832;BME280;23671;38.090;-122.570;2022-07-29T02:08:11;101000.06;;;28.20;35.59
37832;BME280;23671;38.090;-122.570;2022-07-29T02:10:41;101019.41;;;28.12;35.62
37832;BME280;23671;38.090;-122.570;2022-07-29T02:13:11;101014.19;;;28.11;35.86
37832;BME280;23671;38.090;-122.570;2022-07-29T02:15:38;101019.94;;;28.03;35.57
37832;BME280;23671;38.090;-122.570;2022-07-29T02:18:27;101029.22;;;27.95;35.79
37832;BME280;23671;38.090;-122.570;2022-07-29T02:20:56;101021.81;;;27.84;35.70
37832;BME280;23671;38.090;-122.570;2022-07-29T02:23:26;101032.34;;;27.74;35.76
37832;BME280;23671;38.090;-122.570;2022-07-29T02:25:57;101040.72;;;27.72;35.66
37832;BME280;23671;38.090;-122.570;2022-07-29T02:28:27;101035.97;;;27.68;35.78
37832;BME280;23671;38.090;-122.570;2022-07-29T02:30:58;101034.63;;;27.59;35.66
37832;BME280;23671;38.090;-122.570;2022-07-29T02:33:26;101039.19;;;27.58;35.56
37832;BME280;23671;38.090;-122.570;2022-07-29T02:35:55;101032.66;;;27.48;35.74
37832;BME280;23671;38.090;-122.570;2022-07-29T02:38:24;101035.19;;;27.43;35.62
37832;BME280;23671;38.090;-122.570;2022-07-29T02:41:27;101043.84;;;27.33;35.53
37832;BME280;23671;38.090;-122.570;2022-07-29T02:44:17;101036.13;;;27.30;35.76
37832;BME280;23671;38.090;-122.570;2022-07-29T02:46:58;101042.84;;;27.21;35.44
37832;BME280;23671;38.090;-122.570;2022-07-29T02:49:35;101037.50;;;27.15;35.78
37832;BME280;23671;38.090;-122.570;2022-07-29T02:52:24;101032.75;;;27.10;35.53
37832;BME280;23671;38.090;-122.570;2022-07-29T02:57:34;101040.22;;;26.90;35.77
37832;BME280;23671;38.090;-122.570;2022-07-29T03:00:07;101051.09;;;26.83;35.89
37832;BME280;23671;38.090;-122.570;2022-07-29T03:02:38;101043.00;;;26.77;35.29
37832;BME280;23671;38.090;-122.570;2022-07-29T03:05:09;101051.19;;;26.70;35.37
37832;BME280;23671;38.090;-122.570;2022-07-29T03:07:38;101049.53;;;26.63;34.96
37832;BME280;23671;38.090;-122.570;2022-07-29T03:10:07;101045.41;;;26.54;34.94
37832;BME280;23671;38.090;-122.570;2022-07-29T03:12:36;101048.16;;;26.47;35.39
37832;BME280;23671;38.090;-122.570;2022-07-29T03:15:03;101057.38;;;26.40;35.26
37832;BME280;23671;38.090;-122.570;2022-07-29T03:17:31;101048.44;;;26.33;35.13
37832;BME280;23671;38.090;-122.570;2022-07-29T03:19:59;101055.78;;;26.26;34.90
37832;BME280;23671;38.090;-122.570;2022-07-29T03:22:26;101055.16;;;26.17;34.41
37832;BME280;23671;38.090;-122.570;2022-07-29T03:24:53;101053.13;;;26.13;34.45
37832;BME280;23671;38.090;-122.570;2022-07-29T03:27:20;101061.03;;;26.07;34.64
37832;BME280;23671;38.090;-122.570;2022-07-29T03:29:48;101054.19;;;25.98;34.59
37832;BME280;23671;38.090;-122.570;2022-07-29T03:32:15;101064.19;;;25.91;34.34
37832;BME280;23671;38.090;-122.570;2022-07-29T03:34:42;101062.34;;;25.85;34.96
37832;BME280;23671;38.090;-122.570;2022-07-29T03:37:09;101062.34;;;25.79;34.75
37832;BME280;23671;38.090;-122.570;2022-07-29T03:39:40;101061.72;;;25.77;34.50
37832;BME280;23671;38.090;-122.570;2022-07-29T03:42:08;101063.63;;;25.70;34.67
37832;BME280;23671;38.090;-122.570;2022-07-29T03:44:38;101068.41;;;25.61;34.36
37832;BME280;23671;38.090;-122.570;2022-07-29T03:47:07;101062.41;;;25.53;34.55
37832;BME280;23671;38.090;-122.570;2022-07-29T03:49:37;101073.00;;;25.48;34.85
37832;BME280;23671;38.090;-122.570;2022-07-29T03:52:06;101058.44;;;25.42;34.59
37832;BME280;23671;38.090;-122.570;2022-07-29T03:54:33;101061.34;;;25.34;34.85
37832;BME280;23671;38.090;-122.570;2022-07-29T03:57:02;101068.63;;;25.27;35.00
37832;BME280;23671;38.090;-122.570;2022-07-29T03:59:32;101069.06;;;25.24;34.90
37832;BME280;23671;38.090;-122.570;2022-07-29T04:02:02;101070.91;;;25.17;34.96
37832;BME280;23671;38.090;-122.570;2022-07-29T04:04:32;101060.91;;;25.11;35.17
37832;BME280;23671;38.090;-122.570;2022-07-29T04:06:59;101070.06;;;25.03;35.00
37832;BME280;23671;38.090;-122.570;2022-07-29T04:09:26;101069.88;;;24.98;35.18
37832;BME280;23671;38.090;-122.570;2022-07-29T04:11:53;101061.53;;;24.93;35.14
37832;BME280;23671;38.090;-122.570;2022-07-29T04:14:20;101069.44;;;24.88;35.22
37832;BME280;23671;38.090;-122.570;2022-07-29T04:16:47;101059.44;;;24.82;35.15
37832;BME280;23671;38.090;-122.570;2022-07-29T04:19:14;101070.03;;;24.77;35.44
37832;BME280;23671;38.090;-122.570;2022-07-29T04:21:42;101065.66;;;24.76;35.42
37832;BME280;23671;38.090;-122.570;2022-07-29T04:24:10;101068.94;;;24.65;35.55
37832;BME280;23671;38.090;-122.570;2022-07-29T04:26:37;101074.31;;;24.59;35.62
37832;BME280;23671;38.090;-122.570;2022-07-29T04:29:04;101075.16;;;24.53;35.68
37832;BME280;23671;38.090;-122.570;2022-07-29T04:31:31;101072.63;;;24.45;35.83
37832;BME280;23671;38.090;-122.570;2022-07-29T04:33:58;101071.56;;;24.39;35.76
37832;BME280;23671;38.090;-122.570;2022-07-29T04:36:25;101066.97;;;24.33;35.81
37832;BME280;23671;38.090;-122.570;2022-07-29T04:38:52;101073.81;;;24.29;35.89
37832;BME280;23671;38.090;-122.570;2022-07-29T04:41:19;101081.88;;;24.22;35.97
37832;BME280;23671;38.090;-122.570;2022-07-29T04:43:46;101083.13;;;24.20;36.02
37832;BME280;23671;38.090;-122.570;2022-07-29T04:46:13;101091.19;;;24.13;36.24
37832;BME280;23671;38.090;-122.570;2022-07-29T04:48:40;101092.59;;;24.09;36.22
37832;BME280;23671;38.090;-122.570;2022-07-29T04:51:07;101091.91;;;24.01;36.14
37832;BME280;23671;38.090;-122.570;2022-07-29T04:53:34;101092.72;;;23.95;36.21
37832;BME280;23671;38.090;-122.570;2022-07-29T04:56:01;101096.84;;;23.91;36.43
37832;BME280;23671;38.090;-122.570;2022-07-29T04:58:28;101092.44;;;23.83;36.26
37832;BME280;23671;38.090;-122.570;2022-07-29T05:00:55;101100.47;;;23.77;36.55
37832;BME280;23671;38.090;-122.570;2022-07-29T05:03:41;101095.88;;;23.71;36.58
37832;BME280;23671;38.090;-122.570;2022-07-29T05:06:08;101093.97;;;23.65;36.51
37832;BME280;23671;38.090;-122.570;2022-07-29T05:08:35;101097.91;;;23.62;36.65
37832;BME280;23671;38.090;-122.570;2022-07-29T05:11:03;101099.06;;;23.53;36.78
37832;BME280;23671;38.090;-122.570;2022-07-29T05:13:30;101097.78;;;23.49;36.89
37832;BME280;23671;38.090;-122.570;2022-07-29T05:15:57;101116.22;;;23.45;36.85
37832;BME280;23671;38.090;-122.570;2022-07-29T05:18:27;101113.06;;;23.42;36.87
37832;BME280;23671;38.090;-122.570;2022-07-29T05:20:54;101111.78;;;23.38;36.96
37832;BME280;23671;38.090;-122.570;2022-07-29T05:23:21;101111.72;;;23.31;37.09
37832;BME280;23671;38.090;-122.570;2022-07-29T05:25:48;101115.00;;;23.27;36.93
37832;BME280;23671;38.090;-122.570;2022-07-29T05:28:16;101109.34;;;23.22;37.08
37832;BME280;23671;38.090;-122.570;2022-07-29T05:30:43;101110.38;;;23.21;37.16
37832;BME280;23671;38.090;-122.570;2022-07-29T05:33:11;101120.28;;;23.14;37.15
37832;BME280;23671;38.090;-122.570;2022-07-29T05:35:37;101121.03;;;23.08;37.29
37832;BME280;23671;38.090;-122.570;2022-07-29T05:38:05;101112.50;;;23.04;37.30
37832;BME280;23671;38.090;-122.570;2022-07-29T05:40:32;101107.69;;;23.00;37.39
37832;BME280;23671;38.090;-122.570;2022-07-29T05:42:58;101106.41;;;22.96;37.40
37832;BME280;23671;38.090;-122.570;2022-07-29T05:45:25;101093.34;;;22.93;37.47
37832;BME280;23671;38.090;-122.570;2022-07-29T05:47:53;101106.72;;;22.86;37.48
37832;BME280;23671;38.090;-122.570;2022-07-29T05:50:20;101107.94;;;22.84;37.55
37832;BME280;23671;38.090;-122.570;2022-07-29T05:52:47;101107.03;;;22.77;37.67
37832;BME280;23671;38.090;-122.570;2022-07-29T05:55:14;101108.03;;;22.76;37.58
37832;BME280;23671;38.090;-122.570;2022-07-29T05:57:41;101110.28;;;22.72;37.78
37832;BME280;23671;38.090;-122.570;2022-07-29T06:00:10;101106.50;;;22.67;37.82
37832;BME280;23671;38.090;-122.570;2022-07-29T06:02:37;101100.03;;;22.61;37.88
37832;BME280;23671;38.090;-122.570;2022-07-29T06:05:04;101111.19;;;22.58;37.81
37832;BME280;23671;38.090;-122.570;2022-07-29T06:07:31;101102.59;;;22.54;37.93
37832;BME280;23671;38.090;-122.570;2022-07-29T06:09:59;101111.06;;;22.51;37.95
37832;BME280;23671;38.090;-122.570;2022-07-29T06:12:26;101105.22;;;22.48;37.90
37832;BME280;23671;38.090;-122.570;2022-07-29T06:14:52;101102.63;;;22.40;38.18
37832;BME280;23671;38.090;-122.570;2022-07-29T06:17:19;101103.66;;;22.39;38.13
37832;BME280;23671;38.090;-122.570;2022-07-29T06:19:47;101097.81;;;22.35;38.15
37832;BME280;23671;38.090;-122.570;2022-07-29T06:22:15;101101.91;;;22.31;38.18
37832;BME280;23671;38.090;-122.570;2022-07-29T06:24:43;101109.16;;;22.31;38.14
37832;BME280;23671;38.090;-122.570;2022-07-29T06:27:11;101101.84;;;22.25;38.32
37832;BME280;23671;38.090;-122.570;2022-07-29T06:29:38;101110.06;;;22.23;38.33
37832;BME280;23671;38.090;-122.570;2022-07-29T06:32:06;101120.56;;;22.18;38.44
37832;BME280;23671;38.090;-122.570;2022-07-29T06:34:33;101112.88;;;22.15;38.22
37832;BME280;23671;38.090;-122.570;2022-07-29T06:37:05;101111.59;;;22.11;38.29
37832;BME280;23671;38.090;-122.570;2022-07-29T06:39:33;101103.22;;;22.06;38.20
37832;BME280;23671;38.090;-122.570;2022-07-29T06:42:00;101108.97;;;22.03;38.47
37832;BME280;23671;38.090;-122.570;2022-07-29T06:44:27;101106.50;;;22.02;38.57
37832;BME280;23671;38.090;-122.570;2022-07-29T06:46:54;101107.88;;;21.98;38.57
37832;BME280;23671;38.090;-122.570;2022-07-29T06:49:21;101110.56;;;21.98;38.57
37832;BME280;23671;38.090;-122.570;2022-07-29T06:51:49;101128.94;;;21.94;38.60
37832;BME280;23671;38.090;-122.570;2022-07-29T06:54:16;101125.75;;;21.91;38.70
37832;BME280;23671;38.090;-122.570;2022-07-29T06:56:43;101122.78;;;21.86;38.54
37832;BME280;23671;38.090;-122.570;2022-07-29T06:59:12;101130.22;;;21.84;38.76
37832;BME280;23671;38.090;-122.570;2022-07-29T07:01:43;101125.88;;;21.83;38.70
37832;BME280;23671;38.090;-122.570;2022-07-29T07:04:11;101132.13;;;21.75;38.89
37832;BME280;23671;38.090;-122.570;2022-07-29T07:06:39;101123.88;;;21.77;38.77
37832;BME280;23671;38.090;-122.570;2022-07-29T07:09:06;101128.13;;;21.71;38.93
37832;BME280;23671;38.090;-122.570;2022-07-29T07:11:34;101132.84;;;21.69;38.93
37832;BME280;23671;38.090;-122.570;2022-07-29T07:14:01;101133.41;;;21.64;39.04
37832;BME280;23671;38.090;-122.570;2022-07-29T07:16:28;101129.50;;;21.67;39.01
37832;BME280;23671;38.090;-122.570;2022-07-29T07:18:55;101138.13;;;21.62;39.01
37832;BME280;23671;38.090;-122.570;2022-07-29T07:21:22;101135.63;;;21.61;39.07
37832;BME280;23671;38.090;-122.570;2022-07-29T07:23:49;101128.28;;;21.55;39.00
37832;BME280;23671;38.090;-122.570;2022-07-29T07:26:16;101126.59;;;21.54;38.96
37832;BME280;23671;38.090;-122.570;2022-07-29T07:28:43;101122.25;;;21.53;39.13
37832;BME280;23671;38.090;-122.570;2022-07-29T07:31:10;101130.13;;;21.54;38.88
37832;BME280;23671;38.090;-122.570;2022-07-29T07:33:38;101135.88;;;21.51;39.09
37832;BME280;23671;38.090;-122.570;2022-07-29T07:36:05;101135.88;;;21.51;39.01
37832;BME280;23671;38.090;-122.570;2022-07-29T07:38:32;101142.63;;;21.47;39.04
37832;BME280;23671;38.090;-122.570;2022-07-29T07:41:00;101138.56;;;21.51;38.93
37832;BME280;23671;38.090;-122.570;2022-07-29T07:43:27;101138.38;;;21.53;38.85
37832;BME280;23671;38.090;-122.570;2022-07-29T07:45:54;101137.59;;;21.44;38.93
37832;BME280;23671;38.090;-122.570;2022-07-29T07:48:21;101133.13;;;21.37;39.15
37832;BME280;23671;38.090;-122.570;2022-07-29T07:50:48;101132.59;;;21.41;38.96
37832;BME280;23671;38.090;-122.570;2022-07-29T07:53:16;101134.81;;;21.38;39.07
37832;BME280;23671;38.090;-122.570;2022-07-29T07:55:44;101134.81;;;21.38;39.03
37832;BME280;23671;38.090;-122.570;2022-07-29T07:58:11;101129.78;;;21.35;38.98
37832;BME280;23671;38.090;-122.570;2022-07-29T08:00:38;101130.63;;;21.35;38.82
37832;BME280;23671;38.090;-122.570;2022-07-29T08:03:05;101127.75;;;21.37;38.92
37832;BME280;23671;38.090;-122.570;2022-07-29T08:05:32;101127.94;;;21.35;38.95
37832;BME280;23671;38.090;-122.570;2022-07-29T08:07:59;101125.25;;;21.35;38.79
37832;BME280;23671;38.090;-122.570;2022-07-29T08:10:26;101116.91;;;21.30;38.81
37832;BME280;23671;38.090;-122.570;2022-07-29T08:13:12;101111.53;;;21.30;39.05
37832;BME280;23671;38.090;-122.570;2022-07-29T08:15:40;101105.06;;;21.25;39.01
37832;BME280;23671;38.090;-122.570;2022-07-29T08:18:08;101104.50;;;21.29;38.92
37832;BME280;23671;38.090;-122.570;2022-07-29T08:20:37;101101.34;;;21.26;38.89
37832;BME280;23671;38.090;-122.570;2022-07-29T08:23:06;101104.41;;;21.23;38.94
37832;BME280;23671;38.090;-122.570;2022-07-29T08:25:36;101101.06;;;21.21;38.91
37832;BME280;23671;38.090;-122.570;2022-07-29T08:28:05;101098.72;;;21.18;39.12
37832;BME280;23671;38.090;-122.570;2022-07-29T08:30:32;101088.53;;;21.13;39.03
37832;BME280;23671;38.090;-122.570;2022-07-29T08:32:59;101095.56;;;21.14;38.83
37832;BME280;23671;38.090;-122.570;2022-07-29T08:35:27;101092.22;;;21.12;39.17
37832;BME280;23671;38.090;-122.570;2022-07-29T08:37:54;101089.72;;;21.11;39.13
37832;BME280;23671;38.090;-122.570;2022-07-29T08:40:23;101090.06;;;21.08;39.09
37832;BME280;23671;38.090;-122.570;2022-07-29T08:42:51;101093.97;;;21.05;39.07
37832;BME280;23671;38.090;-122.570;2022-07-29T08:45:18;101094.50;;;21.01;39.23
37832;BME280;23671;38.090;-122.570;2022-07-29T08:47:45;101100.69;;;21.01;39.16
37832;BME280;23671;38.090;-122.570;2022-07-29T08:50:19;101092.47;;;21.03;39.20
37832;BME280;23671;38.090;-122.570;2022-07-29T08:52:47;101097.66;;;20.96;39.24
37832;BME280;23671;38.090;-122.570;2022-07-29T08:55:16;101098.03;;;20.93;39.40
37832;BME280;23671;38.090;-122.570;2022-07-29T08:57:44;101097.84;;;20.95;39.33
37832;BME280;23671;38.090;-122.570;2022-07-29T09:00:11;101105.25;;;20.93;39.35
37832;BME280;23671;38.090;-122.570;2022-07-29T09:02:41;101100.91;;;20.92;39.38
37832;BME280;23671;38.090;-122.570;2022-07-29T09:05:11;101096.72;;;20.89;39.34
37832;BME280;23671;38.090;-122.570;2022-07-29T09:07:40;101100.59;;;20.87;39.39
37832;BME280;23671;38.090;-122.570;2022-07-29T09:10:09;101099.66;;;20.79;39.54
37832;BME280;23671;38.090;-122.570;2022-07-29T09:12:36;101094.94;;;20.81;39.55
37832;BME280;23671;38.090;-122.570;2022-07-29T09:15:04;101095.31;;;20.78;39.39
37832;BME280;23671;38.090;-122.570;2022-07-29T09:18:00;101093.81;;;20.76;39.40
37832;BME280;23671;38.090;-122.570;2022-07-29T09:20:28;101082.41;;;20.74;39.40
37832;BME280;23671;38.090;-122.570;2022-07-29T09:23:15;101084.25;;;20.73;39.51
37832;BME280;23671;38.090;-122.570;2022-07-29T09:25:42;101080.25;;;20.69;39.58
37832;BME280;23671;38.090;-122.570;2022-07-29T09:28:14;101080.25;;;20.69;39.50
37832;BME280;23671;38.090;-122.570;2022-07-29T09:30:59;101071.53;;;20.67;39.43
37832;BME280;23671;38.090;-122.570;2022-07-29T09:33:33;101078.94;;;20.65;39.65
37832;BME280;23671;38.090;-122.570;2022-07-29T09:36:09;101078.44;;;20.62;39.57
37832;BME280;23671;38.090;-122.570;2022-07-29T09:38:37;101077.44;;;20.63;39.49
37832;BME280;23671;38.090;-122.570;2022-07-29T09:41:05;101075.78;;;20.62;39.56
37832;BME280;23671;38.090;-122.570;2022-07-29T09:43:34;101079.47;;;20.61;39.48
37832;BME280;23671;38.090;-122.570;2022-07-29T09:46:14;101072.78;;;20.57;39.66
37832;BME280;23671;38.090;-122.570;2022-07-29T09:48:41;101071.28;;;20.54;39.58
37832;BME280;23671;38.090;-122.570;2022-07-29T09:51:21;101071.47;;;20.53;39.82
37832;BME280;23671;38.090;-122.570;2022-07-29T09:53:48;101073.31;;;20.52;39.67
37832;BME280;23671;38.090;-122.570;2022-07-29T09:56:15;101076.38;;;20.49;39.74
37832;BME280;23671;38.090;-122.570;2022-07-29T09:58:42;101075.69;;;20.47;39.71
37832;BME280;23671;38.090;-122.570;2022-07-29T10:01:09;101076.03;;;20.44;39.82
37832;BME280;23671;38.090;-122.570;2022-07-29T10:03:56;101068.00;;;20.44;39.79
37832;BME280;23671;38.090;-122.570;2022-07-29T10:06:23;101076.03;;;20.44;39.85
37832;BME280;23671;38.090;-122.570;2022-07-29T10:08:50;101072.03;;;20.40;39.90
37832;BME280;23671;38.090;-122.570;2022-07-29T10:11:19;101087.66;;;20.37;39.79
37832;BME280;23671;38.090;-122.570;2022-07-29T10:13:48;101086.81;;;20.36;39.93
37832;BME280;23671;38.090;-122.570;2022-07-29T10:16:16;101090.69;;;20.34;40.01
37832;BME280;23671;38.090;-122.570;2022-07-29T10:18:44;101086.19;;;20.34;39.85
37832;BME280;23671;38.090;-122.570;2022-07-29T10:21:13;101082.84;;;20.32;40.13
37832;BME280;23671;38.090;-122.570;2022-07-29T10:23:41;101089.00;;;20.33;39.89
37832;BME280;23671;38.090;-122.570;2022-07-29T10:26:11;101079.47;;;20.30;39.95
37832;BME280;23671;38.090;-122.570;2022-07-29T10:28:38;101082.31;;;20.29;39.80
37832;BME280;23671;38.090;-122.570;2022-07-29T10:31:15;101080.66;;;20.28;40.10
37832;BME280;23671;38.090;-122.570;2022-07-29T10:33:56;101085.53;;;20.24;40.21
37832;BME280;23671;38.090;-122.570;2022-07-29T10:42:50;101081.72;;;20.19;40.08
37832;BME280;23671;38.090;-122.570;2022-07-29T10:45:18;101083.38;;;20.20;40.04
37832;BME280;23671;38.090;-122.570;2022-07-29T10:47:46;101082.69;;;20.18;40.10
37832;BME280;23671;38.090;-122.570;2022-07-29T10:50:13;101078.34;;;20.17;40.02
37832;BME280;23671;38.090;-122.570;2022-07-29T10:52:54;101086.53;;;20.15;40.08
37832;BME280;23671;38.090;-122.570;2022-07-29T10:55:39;101093.09;;;20.13;40.07
37832;BME280;23671;38.090;-122.570;2022-07-29T11:01:40;101088.91;;;20.10;40.19
37832;BME280;23671;38.090;-122.570;2022-07-29T11:04:08;101091.78;;;20.09;40.28
37832;BME280;23671;38.090;-122.570;2022-07-29T11:09:30;101090.44;;;20.05;40.40
37832;BME280;23671;38.090;-122.570;2022-07-29T11:11:57;101090.44;;;20.05;40.50
37832;BME280;23671;38.090;-122.570;2022-07-29T11:15:03;101096.13;;;20.02;40.47
37832;BME280;23671;38.090;-122.570;2022-07-29T11:29:22;101088.63;;;19.97;40.63
37832;BME280;23671;38.090;-122.570;2022-07-29T11:31:51;101092.31;;;19.96;40.60
37832;BME280;23671;38.090;-122.570;2022-07-29T11:34:28;101098.03;;;19.93;40.63
37832;BME280;23671;38.090;-122.570;2022-07-29T11:44:57;101083.13;;;19.90;40.67
37832;BME280;23671;38.090;-122.570;2022-07-29T11:47:26;101083.28;;;19.89;40.45
37832;BME280;23671;38.090;-122.570;2022-07-29T11:49:58;101081.63;;;19.88;40.38
37832;BME280;23671;38.090;-122.570;2022-07-29T11:52:34;101081.63;;;19.88;40.54
37832;BME280;23671;38.090;-122.570;2022-07-29T11:55:05;101079.09;;;19.86;40.58
37832;BME280;23671;38.090;-122.570;2022-07-29T11:57:34;101085.66;;;19.84;40.83
37832;BME280;23671;38.090;-122.570;2022-07-29T12:00:06;101080.47;;;19.82;40.53
37832;BME280;23671;38.090;-122.570;2022-07-29T12:02:41;101083.31;;;19.81;40.72
37832;BME280;23671;38.090;-122.570;2022-07-29T12:05:10;101083.31;;;19.81;40.67
37832;BME280;23671;38.090;-122.570;2022-07-29T12:07:40;101081.66;;;19.80;40.67
37832;BME280;23671;38.090;-122.570;2022-07-29T12:10:08;101081.00;;;19.78;40.81
37832;BME280;23671;38.090;-122.570;2022-07-29T12:12:36;101088.19;;;19.77;40.96
37832;BME280;23671;38.090;-122.570;2022-07-29T12:15:14;101076.81;;;19.75;40.71
37832;BME280;23671;38.090;-122.570;2022-07-29T12:17:42;101085.03;;;19.74;40.77
37832;BME280;23671;38.090;-122.570;2022-07-29T12:20:09;101081.50;;;19.73;40.85
37832;BME280;23671;38.090;-122.570;2022-07-29T12:22:39;101084.34;;;19.72;40.91
37832;BME280;23671;38.090;-122.570;2022-07-29T12:25:12;101078.31;;;19.70;40.89
37832;BME280;23671;38.090;-122.570;2022-07-29T12:27:41;101077.66;;;19.68;40.80
37832;BME280;23671;38.090;-122.570;2022-07-29T12:30:16;101073.28;;;19.67;40.82
37832;BME280;23671;38.090;-122.570;2022-07-29T12:32:46;101079.69;;;19.66;40.77
37832;BME280;23671;38.090;-122.570;2022-07-29T12:35:15;101074.66;;;19.63;40.97
37832;BME280;23671;38.090;-122.570;2022-07-29T12:37:44;101079.19;;;19.62;40.98
37832;BME280;23671;38.090;-122.570;2022-07-29T12:40:13;101082.72;;;19.63;41.05
37832;BME280;23671;38.090;-122.570;2022-07-29T12:45:31;101080.34;;;19.60;40.88
37832;BME280;23671;38.090;-122.570;2022-07-29T12:47:58;101074.31;;;19.58;40.91
37832;BME280;23671;38.090;-122.570;2022-07-29T12:50:25;101080.72;;;19.57;41.03
37832;BME280;23671;38.090;-122.570;2022-07-29T12:52:52;101077.38;;;19.55;41.03
37832;BME280;23671;38.090;-122.570;2022-07-29T12:55:42;101090.09;;;19.53;41.00
37832;BME280;23671;38.090;-122.570;2022-07-29T12:58:10;101083.88;;;19.52;41.16
37832;BME280;23671;38.090;-122.570;2022-07-29T13:00:37;101092.94;;;19.51;41.08
37832;BME280;23671;38.090;-122.570;2022-07-29T13:03:04;101093.94;;;19.50;41.13
37832;BME280;23671;38.090;-122.570;2022-07-29T13:05:45;101093.09;;;19.50;41.44
37832;BME280;23671;38.090;-122.570;2022-07-29T13:08:17;101094.13;;;19.49;41.28
37832;BME280;23671;38.090;-122.570;2022-07-29T13:10:47;101087.91;;;19.48;41.25
37832;BME280;23671;38.090;-122.570;2022-07-29T13:13:15;101085.41;;;19.47;41.06
37832;BME280;23671;38.090;-122.570;2022-07-29T13:15:44;101086.41;;;19.46;41.20
37832;BME280;23671;38.090;-122.570;2022-07-29T13:18:35;101082.06;;;19.45;41.35